SBI5223 UNNT-UIAA
Flight info
| Callsign | SBI5223 |
|---|---|
| Flight time | N/A |
| Altitude | 35000 |
| Route | OGATI A308 RISPA A822 LAPAK B151 RO A817 NERKA B478 TESLO |
| Aircraft | A321/M-SDFGJ1IYRW/LB1 |
Departure
| Time | N/A |
|---|---|
| Airport | Novosibirsk Tolmachevo Airport (UNNT) |
Arrival
| Time | 2026-05-05 11:06 |
|---|---|
| Airport | Chita-Kadala International Airport (UIAA) |
| Time | Latitude | Longitude | Altitude | Speed | Heading |
|---|---|---|---|---|---|
| 2026-05-05 08:43 | 54.85917 | 84.63945 | 27121 ft | 502 kts | 93° |
| 2026-05-05 08:43 | 54.85590 | 84.70007 | 27374 ft | 504 kts | 93° |
| 2026-05-05 08:43 | 54.85271 | 84.76051 | 27631 ft | 505 kts | 92° |
| 2026-05-05 08:44 | 54.84952 | 84.82146 | 27863 ft | 507 kts | 92° |
| 2026-05-05 08:44 | 54.84637 | 84.88246 | 28089 ft | 509 kts | 92° |
| 2026-05-05 08:44 | 54.84320 | 84.94355 | 28305 ft | 510 kts | 92° |
| 2026-05-05 08:44 | 54.83994 | 85.00496 | 28500 ft | 512 kts | 92° |
| 2026-05-05 08:45 | 54.83775 | 85.04576 | 28628 ft | 513 kts | 93° |
| 2026-05-05 08:45 | 54.83439 | 85.10743 | 28832 ft | 514 kts | 93° |
| 2026-05-05 08:45 | 54.83097 | 85.16898 | 29116 ft | 513 kts | 93° |
| 2026-05-05 08:45 | 54.82869 | 85.23062 | 29398 ft | 510 kts | 86° |
| 2026-05-05 08:46 | 54.83090 | 85.29158 | 29663 ft | 505 kts | 78° |
| 2026-05-05 08:46 | 54.84092 | 85.36961 | 30010 ft | 497 kts | 67° |
| 2026-05-05 08:46 | 54.84885 | 85.40759 | 30173 ft | 494 kts | 63° |
| 2026-05-05 08:46 | 54.86124 | 85.46320 | 30407 ft | 494 kts | 63° |
| 2026-05-05 08:47 | 54.87349 | 85.51874 | 30641 ft | 493 kts | 63° |
| 2026-05-05 08:47 | 54.88566 | 85.57436 | 30885 ft | 492 kts | 63° |
| 2026-05-05 08:47 | 54.89773 | 85.62996 | 31127 ft | 491 kts | 63° |
| 2026-05-05 08:47 | 54.90973 | 85.68551 | 31376 ft | 491 kts | 63° |
| 2026-05-05 08:48 | 54.92170 | 85.74106 | 31604 ft | 490 kts | 63° |
| 2026-05-05 08:48 | 54.93367 | 85.79656 | 31846 ft | 490 kts | 63° |
| 2026-05-05 08:48 | 54.94562 | 85.85197 | 32095 ft | 489 kts | 63° |
| 2026-05-05 08:48 | 54.95753 | 85.90733 | 32346 ft | 488 kts | 63° |
| 2026-05-05 08:49 | 54.96937 | 85.96273 | 32600 ft | 488 kts | 62° |
| 2026-05-05 08:49 | 54.98077 | 86.01751 | 32841 ft | 489 kts | 64° |
| 2026-05-05 08:49 | 54.99141 | 86.07382 | 33087 ft | 490 kts | 66° |
| 2026-05-05 08:49 | 55.00119 | 86.13070 | 33337 ft | 491 kts | 67° |
| 2026-05-05 08:50 | 55.01048 | 86.18801 | 33567 ft | 491 kts | 67° |
| 2026-05-05 08:50 | 55.01955 | 86.24538 | 33800 ft | 491 kts | 67° |
| 2026-05-05 08:50 | 55.02863 | 86.30263 | 34035 ft | 490 kts | 67° |
| 2026-05-05 08:50 | 55.03789 | 86.35981 | 34237 ft | 490 kts | 66° |
| 2026-05-05 08:51 | 55.04732 | 86.41682 | 34430 ft | 489 kts | 66° |
| 2026-05-05 08:51 | 55.05683 | 86.47367 | 34640 ft | 488 kts | 66° |
| 2026-05-05 08:51 | 55.06635 | 86.53045 | 34829 ft | 487 kts | 66° |
| 2026-05-05 08:51 | 55.07581 | 86.58718 | 35015 ft | 487 kts | 67° |
| 2026-05-05 08:52 | 55.08524 | 86.64403 | 35080 ft | 486 kts | 67° |
| 2026-05-05 08:52 | 55.10383 | 86.75706 | 35079 ft | 484 kts | 67° |
| 2026-05-05 08:53 | 55.12217 | 86.87006 | 35080 ft | 484 kts | 67° |
| 2026-05-05 08:53 | 55.14043 | 86.98314 | 35081 ft | 484 kts | 67° |
| 2026-05-05 08:54 | 55.15859 | 87.09646 | 35079 ft | 484 kts | 67° |
| 2026-05-05 08:54 | 55.17652 | 87.20916 | 35082 ft | 484 kts | 67° |
| 2026-05-05 08:55 | 55.19447 | 87.32266 | 35081 ft | 484 kts | 67° |
| 2026-05-05 08:55 | 55.21241 | 87.43639 | 35082 ft | 484 kts | 67° |
| 2026-05-05 08:56 | 55.23030 | 87.55025 | 35087 ft | 484 kts | 68° |
| 2026-05-05 08:56 | 55.24798 | 87.66405 | 35091 ft | 485 kts | 68° |
| 2026-05-05 08:57 | 55.26553 | 87.77832 | 35087 ft | 485 kts | 68° |
| 2026-05-05 08:57 | 55.28295 | 87.89249 | 35087 ft | 485 kts | 68° |
| 2026-05-05 08:58 | 55.30033 | 88.00674 | 35091 ft | 485 kts | 68° |
| 2026-05-05 08:58 | 55.31757 | 88.12101 | 35087 ft | 484 kts | 68° |
| 2026-05-05 08:59 | 55.33470 | 88.23546 | 35086 ft | 484 kts | 68° |
| 2026-05-05 08:59 | 55.35173 | 88.34979 | 35083 ft | 484 kts | 68° |
| 2026-05-05 09:00 | 55.36867 | 88.46428 | 35085 ft | 484 kts | 68° |
| 2026-05-05 09:00 | 55.38544 | 88.57882 | 35085 ft | 483 kts | 69° |
| 2026-05-05 09:01 | 55.40209 | 88.69323 | 35080 ft | 483 kts | 69° |
| 2026-05-05 09:01 | 55.41873 | 88.80782 | 35079 ft | 482 kts | 69° |
| 2026-05-05 09:02 | 55.43320 | 88.92262 | 35072 ft | 489 kts | 77° |
| 2026-05-05 09:02 | 55.43885 | 89.04240 | 35072 ft | 491 kts | 79° |
| 2026-05-05 09:03 | 55.44426 | 89.16229 | 35070 ft | 491 kts | 79° |
| 2026-05-05 09:03 | 55.44970 | 89.28213 | 35072 ft | 490 kts | 79° |
| 2026-05-05 09:04 | 55.45499 | 89.40176 | 35082 ft | 490 kts | 79° |
| 2026-05-05 09:04 | 55.46008 | 89.52168 | 35074 ft | 490 kts | 79° |
| 2026-05-05 09:05 | 55.46511 | 89.64143 | 35079 ft | 490 kts | 79° |
| 2026-05-05 09:05 | 55.47011 | 89.76126 | 35092 ft | 490 kts | 79° |
| 2026-05-05 09:06 | 55.47489 | 89.88101 | 35076 ft | 490 kts | 79° |
| 2026-05-05 09:06 | 55.47950 | 90.00073 | 35081 ft | 489 kts | 79° |
| 2026-05-05 09:07 | 55.48400 | 90.12033 | 35083 ft | 489 kts | 80° |
| 2026-05-05 09:07 | 55.48843 | 90.23987 | 35084 ft | 488 kts | 80° |
| 2026-05-05 09:08 | 55.49274 | 90.35938 | 35089 ft | 488 kts | 80° |
| 2026-05-05 09:08 | 55.49688 | 90.47866 | 35090 ft | 487 kts | 80° |
| 2026-05-05 09:09 | 55.50096 | 90.59796 | 35092 ft | 487 kts | 81° |
| 2026-05-05 09:09 | 55.50494 | 90.71706 | 35092 ft | 486 kts | 81° |
| 2026-05-05 09:10 | 55.50876 | 90.83609 | 35095 ft | 486 kts | 81° |
| 2026-05-05 09:10 | 55.51246 | 90.95487 | 35093 ft | 485 kts | 81° |
| 2026-05-05 09:11 | 55.51602 | 91.07298 | 35097 ft | 485 kts | 81° |
| 2026-05-05 09:11 | 55.51333 | 91.19261 | 35102 ft | 491 kts | 90° |
| 2026-05-05 09:12 | 55.50684 | 91.31253 | 35109 ft | 491 kts | 90° |
| 2026-05-05 09:12 | 55.50039 | 91.43224 | 35111 ft | 490 kts | 90° |
| 2026-05-05 09:13 | 55.49385 | 91.55181 | 35116 ft | 489 kts | 90° |
| 2026-05-05 09:13 | 55.48719 | 91.67117 | 35117 ft | 489 kts | 90° |
| 2026-05-05 09:14 | 55.48038 | 91.79030 | 35120 ft | 488 kts | 90° |
| 2026-05-05 09:14 | 55.47336 | 91.90931 | 35125 ft | 487 kts | 90° |
| 2026-05-05 09:15 | 55.46630 | 92.02803 | 35127 ft | 486 kts | 90° |
| 2026-05-05 09:15 | 55.45925 | 92.14648 | 35127 ft | 486 kts | 90° |
| 2026-05-05 09:16 | 55.45205 | 92.26466 | 35129 ft | 485 kts | 90° |
| 2026-05-05 09:16 | 55.44471 | 92.38285 | 35129 ft | 485 kts | 91° |
| 2026-05-05 09:17 | 55.43720 | 92.50079 | 35132 ft | 484 kts | 91° |
| 2026-05-05 09:17 | 55.42977 | 92.61790 | 35129 ft | 484 kts | 91° |
| 2026-05-05 09:18 | 55.42233 | 92.73556 | 35135 ft | 483 kts | 91° |
| 2026-05-05 09:18 | 55.41479 | 92.85301 | 35133 ft | 482 kts | 91° |
| 2026-05-05 09:19 | 55.40705 | 92.97031 | 35134 ft | 482 kts | 91° |
| 2026-05-05 09:19 | 55.39915 | 93.08742 | 35130 ft | 481 kts | 91° |
| 2026-05-05 09:20 | 55.39128 | 93.20352 | 35135 ft | 481 kts | 91° |
| 2026-05-05 09:20 | 55.38327 | 93.32025 | 35122 ft | 480 kts | 92° |
| 2026-05-05 09:21 | 55.37505 | 93.43673 | 35123 ft | 480 kts | 92° |
| 2026-05-05 09:21 | 55.36673 | 93.55338 | 35125 ft | 480 kts | 92° |
| 2026-05-05 09:22 | 55.35847 | 93.66978 | 35132 ft | 480 kts | 92° |
| 2026-05-05 09:22 | 55.35009 | 93.78615 | 35140 ft | 480 kts | 92° |
| 2026-05-05 09:23 | 55.34157 | 93.90232 | 35140 ft | 480 kts | 92° |
| 2026-05-05 09:23 | 55.33282 | 94.01855 | 35146 ft | 480 kts | 92° |
| 2026-05-05 09:24 | 55.32401 | 94.13464 | 35150 ft | 480 kts | 92° |
| 2026-05-05 09:24 | 55.31514 | 94.25018 | 35152 ft | 480 kts | 92° |
| 2026-05-05 09:25 | 55.30612 | 94.36638 | 35161 ft | 480 kts | 92° |
| 2026-05-05 09:25 | 55.29697 | 94.48261 | 35160 ft | 480 kts | 92° |
| 2026-05-05 09:26 | 55.28770 | 94.59869 | 35159 ft | 480 kts | 92° |
| 2026-05-05 09:26 | 55.27831 | 94.71482 | 35174 ft | 480 kts | 92° |
| 2026-05-05 09:27 | 55.26888 | 94.83063 | 35172 ft | 480 kts | 92° |
| 2026-05-05 09:27 | 55.25967 | 94.94661 | 35179 ft | 480 kts | 91° |
| 2026-05-05 09:28 | 55.25164 | 95.06261 | 35184 ft | 479 kts | 90° |
| 2026-05-05 09:28 | 55.24383 | 95.17855 | 35189 ft | 479 kts | 90° |
| 2026-05-05 09:29 | 55.23571 | 95.29375 | 35190 ft | 479 kts | 91° |
| 2026-05-05 09:29 | 55.22721 | 95.40975 | 35189 ft | 479 kts | 91° |
| 2026-05-05 09:30 | 55.21854 | 95.52546 | 35190 ft | 479 kts | 91° |
| 2026-05-05 09:30 | 55.20977 | 95.64125 | 35196 ft | 479 kts | 91° |
| 2026-05-05 09:31 | 55.20097 | 95.75686 | 35196 ft | 479 kts | 91° |
| 2026-05-05 09:31 | 55.19218 | 95.87244 | 35197 ft | 479 kts | 91° |
| 2026-05-05 09:32 | 55.18328 | 95.98726 | 35198 ft | 479 kts | 92° |
| 2026-05-05 09:32 | 55.17412 | 96.10263 | 35198 ft | 478 kts | 92° |
| 2026-05-05 09:33 | 55.16492 | 96.21787 | 35201 ft | 478 kts | 92° |
| 2026-05-05 09:33 | 55.15724 | 96.31361 | 35205 ft | 478 kts | 92° |
| 2026-05-05 09:34 | 55.14783 | 96.42878 | 35202 ft | 478 kts | 92° |
| 2026-05-05 09:34 | 55.13830 | 96.54365 | 35201 ft | 478 kts | 92° |
| 2026-05-05 09:35 | 55.12868 | 96.65859 | 35203 ft | 478 kts | 92° |
| 2026-05-05 09:35 | 55.11410 | 96.83077 | 35200 ft | 477 kts | 93° |
| 2026-05-05 09:36 | 55.10426 | 96.94465 | 35200 ft | 477 kts | 93° |
| 2026-05-05 09:36 | 55.09420 | 97.05937 | 35203 ft | 477 kts | 93° |
| 2026-05-05 09:37 | 55.08399 | 97.17365 | 35203 ft | 477 kts | 94° |
| 2026-05-05 09:37 | 55.07318 | 97.28808 | 35199 ft | 477 kts | 94° |
| 2026-05-05 09:38 | 55.06209 | 97.40220 | 35205 ft | 477 kts | 95° |
| 2026-05-05 09:38 | 55.05095 | 97.51624 | 35208 ft | 477 kts | 95° |
| 2026-05-05 09:39 | 55.03982 | 97.63010 | 35210 ft | 476 kts | 95° |
| 2026-05-05 09:39 | 55.02859 | 97.74378 | 35214 ft | 475 kts | 95° |
| 2026-05-05 09:40 | 55.01719 | 97.85732 | 35211 ft | 475 kts | 96° |
| 2026-05-05 09:40 | 55.00586 | 97.97005 | 35214 ft | 474 kts | 95° |
| 2026-05-05 09:41 | 54.99439 | 98.08319 | 35214 ft | 474 kts | 96° |
| 2026-05-05 09:41 | 54.98283 | 98.19610 | 35212 ft | 474 kts | 96° |
| 2026-05-05 09:42 | 54.97110 | 98.30907 | 35215 ft | 473 kts | 96° |
| 2026-05-05 09:42 | 54.95928 | 98.42181 | 35217 ft | 473 kts | 96° |
| 2026-05-05 09:43 | 54.94749 | 98.53356 | 35218 ft | 473 kts | 97° |
| 2026-05-05 09:43 | 54.93546 | 98.64610 | 35218 ft | 472 kts | 97° |
| 2026-05-05 09:44 | 54.92338 | 98.75837 | 35219 ft | 472 kts | 97° |
| 2026-05-05 09:44 | 54.91119 | 98.87045 | 35222 ft | 471 kts | 97° |
| 2026-05-05 09:45 | 54.89883 | 98.98234 | 35221 ft | 471 kts | 97° |
| 2026-05-05 09:45 | 54.88636 | 99.09399 | 35218 ft | 470 kts | 98° |
| 2026-05-05 09:46 | 54.87306 | 99.20536 | 35222 ft | 470 kts | 98° |
| 2026-05-05 09:46 | 54.85934 | 99.31632 | 35225 ft | 470 kts | 98° |
| 2026-05-05 09:47 | 54.84561 | 99.42699 | 35222 ft | 469 kts | 99° |
| 2026-05-05 09:47 | 54.83188 | 99.53766 | 35221 ft | 469 kts | 99° |
| 2026-05-05 09:48 | 54.81805 | 99.64815 | 35222 ft | 469 kts | 99° |
| 2026-05-05 09:48 | 54.80411 | 99.75864 | 35228 ft | 469 kts | 99° |
| 2026-05-05 09:49 | 54.79012 | 99.86882 | 35224 ft | 468 kts | 99° |
| 2026-05-05 09:49 | 54.77604 | 99.97905 | 35234 ft | 468 kts | 99° |
| 2026-05-05 09:50 | 54.76188 | 100.08909 | 35224 ft | 468 kts | 99° |
| 2026-05-05 09:50 | 54.74755 | 100.19897 | 35229 ft | 468 kts | 99° |
| 2026-05-05 09:51 | 54.73316 | 100.30863 | 35230 ft | 467 kts | 99° |
| 2026-05-05 09:51 | 54.71885 | 100.41747 | 35228 ft | 467 kts | 100° |
| 2026-05-05 09:52 | 54.70421 | 100.52752 | 35228 ft | 466 kts | 100° |
| 2026-05-05 09:52 | 54.68955 | 100.63666 | 35228 ft | 466 kts | 100° |
| 2026-05-05 09:53 | 54.67478 | 100.74562 | 35230 ft | 466 kts | 100° |
| 2026-05-05 09:53 | 54.65996 | 100.85444 | 35230 ft | 465 kts | 100° |
| 2026-05-05 09:54 | 54.64525 | 100.96238 | 35223 ft | 464 kts | 101° |
| 2026-05-05 09:54 | 54.63026 | 101.07080 | 35225 ft | 464 kts | 101° |
| 2026-05-05 09:55 | 54.61520 | 101.17905 | 35225 ft | 464 kts | 101° |
| 2026-05-05 09:55 | 54.60012 | 101.28728 | 35224 ft | 464 kts | 101° |
| 2026-05-05 09:56 | 54.58493 | 101.39520 | 35221 ft | 463 kts | 101° |
| 2026-05-05 09:56 | 54.56958 | 101.50298 | 35221 ft | 463 kts | 101° |
| 2026-05-05 09:57 | 54.55416 | 101.61055 | 35215 ft | 462 kts | 101° |
| 2026-05-05 09:57 | 54.53868 | 101.71781 | 35209 ft | 462 kts | 101° |
| 2026-05-05 09:58 | 54.52316 | 101.82506 | 35203 ft | 461 kts | 101° |
| 2026-05-05 09:58 | 54.50755 | 101.93213 | 35203 ft | 461 kts | 102° |
| 2026-05-05 09:59 | 54.49176 | 102.03929 | 35202 ft | 462 kts | 102° |
| 2026-05-05 09:59 | 54.47593 | 102.14627 | 35204 ft | 462 kts | 102° |
| 2026-05-05 10:00 | 54.46012 | 102.25323 | 35197 ft | 462 kts | 102° |
| 2026-05-05 10:00 | 54.44408 | 102.36010 | 35197 ft | 461 kts | 102° |
| 2026-05-05 10:01 | 54.42800 | 102.46672 | 35197 ft | 461 kts | 102° |
| 2026-05-05 10:01 | 54.41181 | 102.57323 | 35194 ft | 461 kts | 102° |
| 2026-05-05 10:02 | 54.39564 | 102.67868 | 35190 ft | 460 kts | 102° |
| 2026-05-05 10:02 | 54.37925 | 102.78480 | 35183 ft | 460 kts | 102° |
| 2026-05-05 10:03 | 54.36300 | 102.89086 | 35182 ft | 460 kts | 102° |
| 2026-05-05 10:03 | 54.34695 | 102.99689 | 35174 ft | 460 kts | 102° |
| 2026-05-05 10:04 | 54.33072 | 103.10279 | 35172 ft | 459 kts | 102° |
| 2026-05-05 10:04 | 54.31430 | 103.20852 | 35165 ft | 459 kts | 102° |
| 2026-05-05 10:05 | 54.29690 | 103.31402 | 35165 ft | 460 kts | 104° |
| 2026-05-05 10:05 | 54.27827 | 103.41869 | 35173 ft | 460 kts | 104° |
| 2026-05-05 10:06 | 54.25943 | 103.52330 | 35162 ft | 460 kts | 104° |
| 2026-05-05 10:06 | 54.24088 | 103.62795 | 35160 ft | 460 kts | 104° |
| 2026-05-05 10:07 | 54.22238 | 103.73247 | 35155 ft | 460 kts | 104° |
| 2026-05-05 10:07 | 54.20371 | 103.83694 | 35156 ft | 460 kts | 104° |
| 2026-05-05 10:08 | 54.18496 | 103.94140 | 35154 ft | 460 kts | 105° |
| 2026-05-05 10:08 | 54.16617 | 104.04498 | 35147 ft | 460 kts | 105° |
| 2026-05-05 10:09 | 54.14719 | 104.14904 | 35152 ft | 460 kts | 105° |
| 2026-05-05 10:09 | 54.12818 | 104.25315 | 35156 ft | 459 kts | 105° |
| 2026-05-05 10:10 | 54.10904 | 104.35721 | 35156 ft | 459 kts | 105° |
| 2026-05-05 10:10 | 54.08981 | 104.46109 | 35159 ft | 459 kts | 105° |
| 2026-05-05 10:11 | 54.07052 | 104.56485 | 35165 ft | 459 kts | 105° |
| 2026-05-05 10:11 | 54.05116 | 104.66831 | 35169 ft | 459 kts | 105° |
| 2026-05-05 10:12 | 54.03181 | 104.77117 | 35171 ft | 459 kts | 105° |
| 2026-05-05 10:12 | 54.01223 | 104.87441 | 35176 ft | 459 kts | 105° |
| 2026-05-05 10:13 | 53.99262 | 104.97763 | 35170 ft | 459 kts | 105° |
| 2026-05-05 10:13 | 53.97289 | 105.08101 | 35166 ft | 459 kts | 105° |
| 2026-05-05 10:14 | 53.95311 | 105.18418 | 35163 ft | 459 kts | 105° |
| 2026-05-05 10:14 | 53.93314 | 105.28729 | 35159 ft | 460 kts | 106° |
| 2026-05-05 10:15 | 53.91314 | 105.39036 | 35151 ft | 460 kts | 106° |
| 2026-05-05 10:15 | 53.89308 | 105.49338 | 35148 ft | 460 kts | 106° |
| 2026-05-05 10:16 | 53.87286 | 105.59637 | 35144 ft | 460 kts | 106° |
| 2026-05-05 10:16 | 53.85279 | 105.69866 | 35141 ft | 460 kts | 106° |
| 2026-05-05 10:17 | 53.83245 | 105.80148 | 35136 ft | 461 kts | 106° |
| 2026-05-05 10:17 | 53.81185 | 105.90424 | 35132 ft | 461 kts | 106° |
| 2026-05-05 10:18 | 53.79131 | 106.00696 | 35127 ft | 461 kts | 106° |
| 2026-05-05 10:18 | 53.77071 | 106.10957 | 35124 ft | 461 kts | 107° |
| 2026-05-05 10:19 | 53.74994 | 106.21211 | 35122 ft | 461 kts | 107° |
| 2026-05-05 10:19 | 53.72901 | 106.31467 | 35122 ft | 461 kts | 107° |
| 2026-05-05 10:20 | 53.71160 | 106.39970 | 35125 ft | 461 kts | 107° |
| 2026-05-05 10:20 | 53.68717 | 106.51847 | 35123 ft | 461 kts | 107° |
| 2026-05-05 10:21 | 53.66949 | 106.60415 | 35126 ft | 461 kts | 107° |
| 2026-05-05 10:21 | 53.64828 | 106.70629 | 35128 ft | 461 kts | 107° |
| 2026-05-05 10:22 | 53.62711 | 106.80762 | 35132 ft | 461 kts | 107° |
| 2026-05-05 10:22 | 53.60580 | 106.90947 | 35132 ft | 461 kts | 107° |
| 2026-05-05 10:23 | 53.58440 | 107.01144 | 35133 ft | 461 kts | 107° |
| 2026-05-05 10:23 | 53.56287 | 107.11310 | 35132 ft | 462 kts | 108° |
| 2026-05-05 10:24 | 53.54115 | 107.21477 | 35128 ft | 462 kts | 108° |
| 2026-05-05 10:24 | 53.51937 | 107.31641 | 35123 ft | 462 kts | 108° |
| 2026-05-05 10:25 | 53.49755 | 107.41787 | 35117 ft | 462 kts | 108° |
| 2026-05-05 10:25 | 53.47561 | 107.51941 | 35116 ft | 462 kts | 108° |
| 2026-05-05 10:26 | 53.45356 | 107.62085 | 35114 ft | 463 kts | 108° |
| 2026-05-05 10:26 | 53.43136 | 107.72220 | 35114 ft | 463 kts | 108° |
| 2026-05-05 10:27 | 53.40909 | 107.82354 | 35117 ft | 463 kts | 108° |
| 2026-05-05 10:27 | 53.38684 | 107.92487 | 35120 ft | 463 kts | 108° |
| 2026-05-05 10:28 | 53.36450 | 108.02619 | 35120 ft | 464 kts | 109° |
| 2026-05-05 10:28 | 53.34197 | 108.12732 | 35125 ft | 464 kts | 109° |
| 2026-05-05 10:29 | 53.31939 | 108.22778 | 35127 ft | 464 kts | 109° |
| 2026-05-05 10:29 | 53.29667 | 108.32880 | 35120 ft | 464 kts | 109° |
| 2026-05-05 10:30 | 53.27391 | 108.42985 | 35124 ft | 464 kts | 109° |
| 2026-05-05 10:30 | 53.25099 | 108.53094 | 35119 ft | 465 kts | 109° |
| 2026-05-05 10:31 | 53.22803 | 108.63189 | 35118 ft | 465 kts | 109° |
| 2026-05-05 10:31 | 53.20492 | 108.73259 | 35106 ft | 465 kts | 109° |
| 2026-05-05 10:32 | 53.18181 | 108.83268 | 35102 ft | 465 kts | 109° |
| 2026-05-05 10:32 | 53.15848 | 108.93327 | 35103 ft | 465 kts | 109° |
| 2026-05-05 10:33 | 53.13508 | 109.03392 | 35094 ft | 466 kts | 109° |
| 2026-05-05 10:33 | 53.11150 | 109.13471 | 35080 ft | 466 kts | 109° |
| 2026-05-05 10:34 | 53.08787 | 109.23528 | 35070 ft | 467 kts | 110° |
| 2026-05-05 10:34 | 53.06411 | 109.33600 | 35072 ft | 468 kts | 109° |
| 2026-05-05 10:35 | 53.04023 | 109.43683 | 35059 ft | 469 kts | 110° |
| 2026-05-05 10:35 | 53.01634 | 109.53698 | 35049 ft | 470 kts | 110° |
| 2026-05-05 10:36 | 52.99201 | 109.63871 | 35047 ft | 471 kts | 110° |
| 2026-05-05 10:36 | 52.96791 | 109.73906 | 35046 ft | 472 kts | 110° |
| 2026-05-05 10:37 | 52.94358 | 109.84015 | 35033 ft | 472 kts | 110° |
| 2026-05-05 10:37 | 52.91906 | 109.94125 | 35033 ft | 472 kts | 110° |
| 2026-05-05 10:38 | 52.89435 | 110.04229 | 35023 ft | 473 kts | 110° |
| 2026-05-05 10:38 | 52.86962 | 110.14312 | 35014 ft | 473 kts | 110° |
| 2026-05-05 10:39 | 52.84495 | 110.24331 | 35015 ft | 473 kts | 111° |
| 2026-05-05 10:39 | 52.82004 | 110.34407 | 35006 ft | 473 kts | 111° |
| 2026-05-05 10:40 | 52.79509 | 110.44486 | 34996 ft | 473 kts | 111° |
| 2026-05-05 10:40 | 52.76993 | 110.54559 | 34986 ft | 474 kts | 111° |
| 2026-05-05 10:41 | 52.74470 | 110.64603 | 34986 ft | 473 kts | 111° |
| 2026-05-05 10:41 | 52.71946 | 110.74639 | 34976 ft | 473 kts | 111° |
| 2026-05-05 10:42 | 52.68145 | 110.89658 | 34976 ft | 473 kts | 112° |
| 2026-05-05 10:43 | 52.65611 | 110.99608 | 34969 ft | 473 kts | 112° |
| 2026-05-05 10:43 | 52.63055 | 111.09590 | 34971 ft | 473 kts | 112° |
| 2026-05-05 10:44 | 52.60493 | 111.19558 | 34968 ft | 473 kts | 112° |
| 2026-05-05 10:44 | 52.57925 | 111.29525 | 34966 ft | 473 kts | 112° |
| 2026-05-05 10:45 | 52.55349 | 111.39478 | 34961 ft | 473 kts | 112° |
| 2026-05-05 10:45 | 52.52761 | 111.49414 | 34959 ft | 473 kts | 112° |
| 2026-05-05 10:45 | 52.51461 | 111.54370 | 34828 ft | 474 kts | 112° |
| 2026-05-05 10:46 | 52.50150 | 111.59326 | 34594 ft | 473 kts | 113° |
| 2026-05-05 10:46 | 52.48846 | 111.64199 | 34373 ft | 473 kts | 113° |
| 2026-05-05 10:46 | 52.47515 | 111.69135 | 34148 ft | 472 kts | 113° |
| 2026-05-05 10:46 | 52.46185 | 111.74051 | 33918 ft | 472 kts | 113° |
| 2026-05-05 10:47 | 52.44854 | 111.78981 | 33175 ft | 474 kts | 113° |
| 2026-05-05 10:47 | 52.43518 | 111.83943 | 32214 ft | 477 kts | 113° |
| 2026-05-05 10:47 | 52.42175 | 111.88939 | 31291 ft | 479 kts | 113° |
| 2026-05-05 10:47 | 52.40835 | 111.93918 | 30362 ft | 479 kts | 113° |
| 2026-05-05 10:48 | 52.39484 | 111.98929 | 29173 ft | 483 kts | 113° |
| 2026-05-05 10:48 | 52.38128 | 112.03949 | 28186 ft | 480 kts | 113° |
| 2026-05-05 10:48 | 52.36788 | 112.08877 | 27662 ft | 469 kts | 113° |
| 2026-05-05 10:48 | 52.35465 | 112.13719 | 26995 ft | 463 kts | 114° |
| 2026-05-05 10:49 | 52.34157 | 112.18494 | 26359 ft | 457 kts | 114° |
| 2026-05-05 10:49 | 52.32864 | 112.23201 | 25732 ft | 451 kts | 114° |
| 2026-05-05 10:49 | 52.31585 | 112.27851 | 25115 ft | 446 kts | 114° |
| 2026-05-05 10:49 | 52.30323 | 112.32440 | 24530 ft | 440 kts | 114° |
| 2026-05-05 10:50 | 52.29077 | 112.36966 | 23932 ft | 435 kts | 114° |
| 2026-05-05 10:50 | 52.27840 | 112.41448 | 23317 ft | 430 kts | 114° |
| 2026-05-05 10:50 | 52.26620 | 112.45864 | 22711 ft | 423 kts | 114° |
| 2026-05-05 10:50 | 52.25480 | 112.50232 | 22187 ft | 413 kts | 109° |
| 2026-05-05 10:51 | 52.24716 | 112.54691 | 21672 ft | 403 kts | 101° |
| 2026-05-05 10:51 | 52.24138 | 112.59057 | 21206 ft | 394 kts | 101° |
| 2026-05-05 10:51 | 52.23543 | 112.63444 | 20725 ft | 389 kts | 102° |
| 2026-05-05 10:51 | 52.22952 | 112.67724 | 20279 ft | 386 kts | 102° |
| 2026-05-05 10:52 | 52.22369 | 112.71937 | 19839 ft | 384 kts | 102° |
| 2026-05-05 10:52 | 52.21815 | 112.75925 | 19431 ft | 382 kts | 102° |
| 2026-05-05 10:52 | 52.21239 | 112.80081 | 19007 ft | 379 kts | 102° |
| 2026-05-05 10:52 | 52.20660 | 112.84258 | 18589 ft | 377 kts | 102° |
| 2026-05-05 10:53 | 52.20085 | 112.88412 | 18155 ft | 374 kts | 102° |
| 2026-05-05 10:53 | 52.19515 | 112.92531 | 17704 ft | 372 kts | 102° |
| 2026-05-05 10:53 | 52.18943 | 112.96635 | 17274 ft | 370 kts | 102° |
| 2026-05-05 10:53 | 52.18375 | 113.00707 | 16846 ft | 367 kts | 101° |
| 2026-05-05 10:54 | 52.17810 | 113.04748 | 16418 ft | 365 kts | 102° |
| 2026-05-05 10:54 | 52.17247 | 113.08766 | 15972 ft | 362 kts | 101° |
| 2026-05-05 10:54 | 52.16686 | 113.12751 | 15533 ft | 360 kts | 101° |
| 2026-05-05 10:54 | 52.16123 | 113.16702 | 15081 ft | 357 kts | 101° |
| 2026-05-05 10:55 | 52.15564 | 113.20630 | 14624 ft | 355 kts | 101° |
| 2026-05-05 10:55 | 52.15010 | 113.24534 | 14172 ft | 352 kts | 101° |
| 2026-05-05 10:55 | 52.14460 | 113.28405 | 13715 ft | 350 kts | 101° |
| 2026-05-05 10:55 | 52.13915 | 113.32246 | 13213 ft | 347 kts | 101° |
| 2026-05-05 10:56 | 52.13373 | 113.36062 | 12747 ft | 345 kts | 101° |
| 2026-05-05 10:56 | 52.12830 | 113.39850 | 12275 ft | 342 kts | 101° |
| 2026-05-05 10:56 | 52.12288 | 113.43608 | 11803 ft | 340 kts | 101° |
| 2026-05-05 10:56 | 52.11749 | 113.47331 | 11321 ft | 337 kts | 101° |
| 2026-05-05 10:57 | 52.11214 | 113.51026 | 10844 ft | 334 kts | 101° |
| 2026-05-05 10:57 | 52.10684 | 113.54676 | 10551 ft | 325 kts | 101° |
| 2026-05-05 10:57 | 52.10175 | 113.58169 | 10420 ft | 310 kts | 101° |
| 2026-05-05 10:57 | 52.09684 | 113.61515 | 10218 ft | 300 kts | 101° |
| 2026-05-05 10:58 | 52.09204 | 113.64784 | 9928 ft | 295 kts | 100° |
| 2026-05-05 10:58 | 52.08733 | 113.68006 | 9752 ft | 292 kts | 100° |
| 2026-05-05 10:58 | 52.08253 | 113.71214 | 9614 ft | 292 kts | 104° |
| 2026-05-05 10:58 | 52.07295 | 113.74126 | 9472 ft | 297 kts | 130° |
| 2026-05-05 10:59 | 52.05633 | 113.76151 | 8845 ft | 306 kts | 158° |
| 2026-05-05 10:59 | 52.03532 | 113.76636 | 8275 ft | 305 kts | 189° |
| 2026-05-05 10:59 | 52.01498 | 113.76020 | 8102 ft | 292 kts | 193° |
| 2026-05-05 10:59 | 51.99641 | 113.74965 | 7942 ft | 275 kts | 217° |
| 2026-05-05 11:00 | 51.98419 | 113.72833 | 7804 ft | 254 kts | 246° |
| 2026-05-05 11:00 | 51.97990 | 113.70098 | 7409 ft | 245 kts | 274° |
| 2026-05-05 11:00 | 51.98173 | 113.67458 | 7198 ft | 229 kts | 284° |
| 2026-05-05 11:00 | 51.98479 | 113.65001 | 6955 ft | 215 kts | 285° |
| 2026-05-05 11:01 | 51.98769 | 113.62682 | 6636 ft | 207 kts | 285° |
| 2026-05-05 11:01 | 51.99047 | 113.60409 | 6345 ft | 202 kts | 285° |
| 2026-05-05 11:01 | 51.99313 | 113.58214 | 6027 ft | 195 kts | 285° |
| 2026-05-05 11:01 | 51.99568 | 113.56094 | 5692 ft | 187 kts | 285° |
| 2026-05-05 11:02 | 51.99808 | 113.54096 | 5402 ft | 175 kts | 285° |
| 2026-05-05 11:02 | 52.00033 | 113.52221 | 5150 ft | 163 kts | 286° |
| 2026-05-05 11:02 | 52.00246 | 113.50448 | 4889 ft | 158 kts | 286° |
| 2026-05-05 11:02 | 52.00453 | 113.48726 | 4635 ft | 152 kts | 286° |
| 2026-05-05 11:03 | 52.00648 | 113.47094 | 4386 ft | 144 kts | 286° |
| 2026-05-05 11:03 | 52.00836 | 113.45524 | 4170 ft | 141 kts | 286° |
| 2026-05-05 11:03 | 52.01022 | 113.43971 | 3931 ft | 139 kts | 287° |
| 2026-05-05 11:03 | 52.01205 | 113.42440 | 3707 ft | 138 kts | 286° |
| 2026-05-05 11:04 | 52.01389 | 113.40904 | 3472 ft | 139 kts | 284° |
| 2026-05-05 11:04 | 52.01572 | 113.39363 | 3237 ft | 139 kts | 284° |
| 2026-05-05 11:04 | 52.01755 | 113.37822 | 3010 ft | 139 kts | 282° |
| 2026-05-05 11:04 | 52.01939 | 113.36288 | 2783 ft | 138 kts | 280° |
| 2026-05-05 11:05 | 52.02109 | 113.34736 | 2573 ft | 140 kts | 281° |
| 2026-05-05 11:05 | 52.02295 | 113.33197 | 2371 ft | 139 kts | 283° |
| 2026-05-05 11:05 | 52.02473 | 113.31694 | 2255 ft | 131 kts | 281° |
| 2026-05-05 11:05 | 52.02622 | 113.30517 | 2250 ft | 67 kts | 281° |
| 2026-05-05 11:06 | 52.02668 | 113.30118 | 2252 ft | 19 kts | 281° |
| 2026-05-05 11:06 | 52.02693 | 113.29894 | 2254 ft | 24 kts | 281° |
| 2026-05-05 11:06 | 52.02714 | 113.29723 | 2255 ft | 9 kts | 281° |
| 2026-05-05 11:06 | 52.02700 | 113.29659 | 2255 ft | 5 kts | 215° |
| 2026-05-05 11:07 | 52.02661 | 113.29641 | 2253 ft | 8 kts | 193° |
| 2026-05-05 11:07 | 52.02588 | 113.29621 | 2249 ft | 12 kts | 187° |
| 2026-05-05 11:07 | 52.02530 | 113.29605 | 2248 ft | 7 kts | 186° |
| 2026-05-05 11:07 | 52.02510 | 113.29622 | 2248 ft | 2 kts | 129° |
| 2026-05-05 11:08 | 52.02501 | 113.29667 | 2248 ft | 7 kts | 105° |
| 2026-05-05 11:08 | 52.02490 | 113.29761 | 2248 ft | 10 kts | 101° |
| 2026-05-05 11:08 | 52.02478 | 113.29859 | 2249 ft | 8 kts | 101° |
| 2026-05-05 11:08 | 52.02468 | 113.29943 | 2237 ft | 7 kts | 101° |
| 2026-05-05 11:09 | 52.02459 | 113.30031 | 2237 ft | 10 kts | 100° |
| 2026-05-05 11:09 | 52.02444 | 113.30156 | 2237 ft | 13 kts | 101° |
| 2026-05-05 11:09 | 52.02425 | 113.30321 | 2237 ft | 16 kts | 101° |
| 2026-05-05 11:09 | 52.02406 | 113.30485 | 2237 ft | 12 kts | 101° |
| 2026-05-05 11:10 | 52.02395 | 113.30579 | 2237 ft | 7 kts | 100° |
| 2026-05-05 11:10 | 52.02389 | 113.30626 | 2237 ft | 6 kts | 107° |
| 2026-05-05 11:10 | 52.02362 | 113.30651 | 2237 ft | 4 kts | 172° |
| 2026-05-05 11:10 | 52.02335 | 113.30646 | 2237 ft | 4 kts | 191° |
| 2026-05-05 11:11 | 52.02304 | 113.30634 | 2237 ft | 5 kts | 195° |
| 2026-05-05 11:11 | 52.02259 | 113.30611 | 2237 ft | 5 kts | 199° |
| 2026-05-05 11:11 | 52.02235 | 113.30609 | 2237 ft | 2 kts | 156° |
| 2026-05-05 11:11 | 52.02229 | 113.30621 | 2237 ft | 2 kts | 131° |
| 2026-05-05 11:12 | 52.02222 | 113.30642 | 2237 ft | 2 kts | 113° |
| 2026-05-05 11:12 | 52.02218 | 113.30663 | 2237 ft | 1 kts | 109° |
| 2026-05-05 11:12 | 52.02218 | 113.30664 | 2237 ft | 0 kts | 109° |